createdAt,value
2022-08-12T04:00:26.071Z,12.00
2022-08-12T04:01:26.109Z,12.00
2022-08-12T04:02:26.004Z,16.00
2022-08-12T04:03:26.016Z,12.00
2022-08-12T04:04:25.981Z,16.00
2022-08-12T04:05:25.979Z,20.00
2022-08-12T04:06:34.706Z,24.00
2022-08-12T04:07:26.950Z,24.00
2022-08-12T04:08:25.957Z,28.00
2022-08-12T04:09:25.931Z,28.00
2022-08-12T04:10:25.921Z,32.00
2022-08-12T04:11:32.246Z,32.00
2022-08-12T04:12:26.230Z,36.00
2022-08-12T04:13:25.894Z,40.00
2022-08-12T04:14:25.878Z,44.00
2022-08-12T04:15:25.886Z,48.00
2022-08-12T04:16:25.850Z,52.00
2022-08-12T04:17:25.836Z,60.00
2022-08-12T04:18:25.833Z,64.00
2022-08-12T04:19:25.829Z,64.00
2022-08-12T04:20:25.805Z,68.00
2022-08-12T04:21:25.997Z,72.00
2022-08-12T04:22:31.170Z,84.00
2022-08-12T04:23:25.781Z,88.00
2022-08-12T04:24:25.755Z,92.00
2022-08-12T04:25:25.746Z,96.00
2022-08-12T04:26:25.737Z,104.00
2022-08-12T04:27:25.726Z,108.00
2022-08-12T04:28:25.729Z,116.00
2022-08-12T04:30:30.427Z,120.00
2022-08-12T04:30:32.510Z,128.00
2022-08-12T04:31:26.677Z,132.00
2022-08-12T04:32:25.665Z,136.00
2022-08-12T04:33:30.693Z,144.00
2022-08-12T04:34:25.642Z,152.00
2022-08-12T04:35:25.646Z,156.00
2022-08-12T04:36:25.621Z,164.00
2022-08-12T04:37:25.616Z,168.00
2022-08-12T04:38:25.598Z,176.00
2022-08-12T04:39:25.714Z,180.00
2022-08-12T04:40:28.666Z,188.00
2022-08-12T04:41:25.567Z,196.00
2022-08-12T04:42:25.553Z,200.00
2022-08-12T04:43:54.536Z,212.00
2022-08-12T04:44:31.570Z,216.00
2022-08-12T04:45:25.521Z,224.00
2022-08-12T04:46:28.879Z,228.00
2022-08-12T04:47:26.508Z,236.00
2022-08-12T04:48:25.491Z,244.00
2022-08-12T04:49:25.484Z,248.00
2022-08-12T04:50:33.734Z,252.00
2022-08-12T04:51:26.449Z,264.00
2022-08-12T04:52:25.441Z,272.00
2022-08-12T04:53:25.428Z,276.00
2022-08-12T04:54:25.433Z,284.00
2022-08-12T04:55:30.428Z,284.00
2022-08-12T04:56:25.407Z,292.00
2022-08-12T04:57:25.383Z,300.00
2022-08-12T04:58:29.482Z,308.00
2022-08-12T04:59:25.370Z,312.00
2022-08-12T05:00:25.352Z,320.00
2022-08-12T05:01:25.337Z,328.00
2022-08-12T05:02:25.352Z,332.00
2022-08-12T05:03:25.323Z,336.00
2022-08-12T05:04:25.317Z,348.00
2022-08-12T05:05:25.293Z,352.00
2022-08-12T05:06:30.328Z,360.00
2022-08-12T05:07:25.272Z,364.00
2022-08-12T05:08:25.261Z,368.00
2022-08-12T05:09:25.275Z,372.00
2022-08-12T05:10:33.584Z,380.00
2022-08-12T05:11:26.227Z,380.00
2022-08-12T05:12:25.217Z,392.00
2022-08-12T05:13:25.210Z,396.00
2022-08-12T05:14:25.206Z,404.00
2022-08-12T05:15:29.259Z,408.00
2022-08-12T05:16:30.817Z,420.00
2022-08-12T05:17:31.194Z,424.00
2022-08-12T05:18:25.147Z,424.00
2022-08-12T05:19:25.152Z,436.00
2022-08-12T05:20:25.127Z,440.00
2022-08-12T05:21:25.111Z,444.00
2022-08-12T05:22:25.104Z,448.00
2022-08-12T05:23:25.093Z,456.00
2022-08-12T05:24:25.079Z,456.00
2022-08-12T05:25:25.081Z,468.00
2022-08-12T05:26:25.061Z,472.00
2022-08-12T05:27:25.045Z,480.00
2022-08-12T05:28:30.059Z,484.00
2022-08-12T05:30:07.905Z,488.00
2022-08-12T05:30:26.020Z,492.00
2022-08-12T05:31:47.520Z,496.00
2022-08-12T05:32:25.996Z,504.00
2022-08-12T05:33:24.978Z,512.00
2022-08-12T05:34:26.765Z,516.00
2022-08-12T05:35:24.969Z,528.00
2022-08-12T05:36:24.953Z,536.00
2022-08-12T05:37:24.932Z,548.00
2022-08-12T05:38:24.933Z,548.00
2022-08-12T05:39:30.008Z,560.00
2022-08-12T05:40:24.925Z,572.00
2022-08-12T05:41:24.894Z,584.00
2022-08-12T05:42:41.228Z,596.00
2022-08-12T05:43:25.865Z,588.00
2022-08-12T05:44:24.859Z,580.00
2022-08-12T05:45:24.879Z,584.00
2022-08-12T05:46:24.832Z,592.00
2022-08-12T05:47:24.829Z,600.00
2022-08-12T05:48:25.813Z,596.00
2022-08-12T05:49:24.799Z,616.00
2022-08-12T05:50:29.829Z,640.00
2022-08-12T05:51:24.774Z,648.00
2022-08-12T05:52:25.770Z,636.00
2022-08-12T05:53:24.752Z,644.00
2022-08-12T05:54:41.147Z,640.00
2022-08-12T05:55:30.706Z,660.00
2022-08-12T05:56:25.724Z,692.00
2022-08-12T05:57:24.707Z,728.00
2022-08-12T05:58:24.700Z,736.00
2022-08-12T05:59:24.684Z,708.00
2022-08-12T06:00:24.689Z,840.00
2022-08-12T06:02:09.874Z,920.00
2022-08-12T06:02:25.653Z,1084.00
2022-08-12T06:03:24.701Z,1152.00
2022-08-12T06:04:24.631Z,940.00
2022-08-12T06:05:24.633Z,820.00
2022-08-12T06:06:27.690Z,864.00
2022-08-12T06:07:59.199Z,924.00
2022-08-12T06:08:25.582Z,876.00
2022-08-12T06:09:24.586Z,852.00
2022-08-12T06:10:32.016Z,1068.00
2022-08-12T06:11:25.548Z,1120.00
2022-08-12T06:12:29.564Z,1064.00
2022-08-12T06:13:25.658Z,1076.00
2022-08-12T06:14:24.526Z,1100.00
2022-08-12T06:15:24.557Z,1056.00
2022-08-12T06:16:24.503Z,1008.00
2022-08-12T06:17:24.506Z,932.00
2022-08-12T06:18:29.205Z,860.00
2022-08-12T06:19:25.475Z,892.00
2022-08-12T06:20:29.830Z,948.00
2022-08-12T06:21:24.439Z,936.00
2022-08-12T06:22:24.433Z,1036.00
2022-08-12T06:23:29.443Z,1100.00
2022-08-12T06:24:24.507Z,1296.00
2022-08-12T06:25:24.391Z,1252.00
2022-08-12T06:26:24.385Z,1216.00
2022-08-12T06:27:24.379Z,1272.00
2022-08-12T06:28:24.364Z,1872.00
2022-08-12T06:30:06.508Z,2712.00
2022-08-12T06:30:36.809Z,3392.00
2022-08-12T06:31:26.889Z,4192.00
2022-08-12T06:32:27.660Z,3612.00
2022-08-12T06:33:25.113Z,4188.00
2022-08-12T06:35:23.577Z,2852.00
2022-08-12T06:35:47.774Z,2380.00
2022-08-12T06:36:25.278Z,2292.00
2022-08-12T06:37:25.607Z,2420.00
2022-08-12T06:38:24.266Z,1496.00
2022-08-12T06:39:24.329Z,1364.00
2022-08-12T06:40:24.250Z,1836.00
2022-08-12T06:41:25.215Z,1972.00
2022-08-12T06:42:33.114Z,3044.00
2022-08-12T06:43:25.197Z,3260.00
2022-08-12T06:44:24.188Z,2352.00
2022-08-12T06:45:45.579Z,1692.00
2022-08-12T06:46:25.162Z,1532.00
2022-08-12T06:47:24.184Z,1480.00
2022-08-12T06:48:24.140Z,1372.00
2022-08-12T06:49:24.144Z,1208.00
2022-08-12T06:50:24.126Z,1376.00
2022-08-12T06:51:24.136Z,1484.00
2022-08-12T06:52:24.126Z,1260.00
2022-08-12T06:53:24.082Z,1324.00
2022-08-12T06:54:30.891Z,1364.00
2022-08-12T06:55:25.075Z,2336.00
2022-08-12T06:56:52.644Z,1856.00
2022-08-12T06:58:01.758Z,1272.00
2022-08-12T06:58:25.037Z,1072.00
2022-08-12T06:59:24.045Z,1092.00
2022-08-12T07:00:28.478Z,1052.00
2022-08-12T07:01:25.041Z,1128.00
2022-08-12T07:02:23.983Z,1396.00
2022-08-12T07:03:24.004Z,1072.00
2022-08-12T07:04:39.760Z,1100.00
2022-08-12T07:05:25.013Z,1044.00
2022-08-12T07:06:23.946Z,1112.00
2022-08-12T07:07:28.949Z,1668.00
2022-08-12T07:08:23.918Z,1004.00
2022-08-12T07:09:55.850Z,1008.00
2022-08-12T07:10:24.965Z,976.00
2022-08-12T07:11:23.884Z,1476.00
2022-08-12T07:12:23.881Z,1236.00
2022-08-12T07:13:23.861Z,1436.00
2022-08-12T07:14:23.859Z,1172.00
2022-08-12T07:15:23.854Z,1248.00
2022-08-12T07:16:23.828Z,1060.00
2022-08-12T07:17:23.822Z,1020.00
2022-08-12T07:18:28.833Z,1008.00
2022-08-12T07:19:23.794Z,1016.00
2022-08-12T07:20:50.291Z,1020.00
2022-08-12T07:21:24.772Z,1036.00
2022-08-12T07:22:24.765Z,1040.00
2022-08-12T07:23:23.748Z,1080.00
2022-08-12T07:24:23.739Z,1188.00
2022-08-12T07:25:23.743Z,1140.00
2022-08-12T07:26:23.717Z,1076.00
2022-08-12T07:27:23.703Z,1084.00
2022-08-12T07:28:23.702Z,1108.00
2022-08-12T07:29:58.298Z,1100.00
2022-08-12T07:30:24.686Z,1276.00
2022-08-12T07:31:23.668Z,1544.00
2022-08-12T07:32:27.982Z,1448.00
2022-08-12T07:33:24.635Z,1172.00
2022-08-12T07:34:23.628Z,1168.00
2022-08-12T07:35:23.639Z,1104.00
2022-08-12T07:36:23.605Z,1128.00
2022-08-12T07:37:23.690Z,1160.00
2022-08-12T07:38:28.929Z,1344.00
2022-08-12T07:39:24.608Z,1580.00
2022-08-12T07:40:28.595Z,1652.00
2022-08-12T07:41:23.618Z,1264.00
2022-08-12T07:42:23.544Z,1168.00
2022-08-12T07:43:23.628Z,1272.00
2022-08-12T07:44:23.517Z,1280.00
2022-08-12T07:45:23.798Z,1152.00
2022-08-12T07:46:23.504Z,1124.00
2022-08-12T07:47:23.485Z,1116.00
2022-08-12T07:48:23.471Z,1120.00
2022-08-12T07:49:23.462Z,1124.00
2022-08-12T07:50:24.026Z,1172.00
2022-08-12T07:51:28.471Z,1176.00
2022-08-12T07:52:23.438Z,1172.00
2022-08-12T07:53:23.415Z,1164.00
2022-08-12T07:54:23.408Z,1184.00
2022-08-12T07:55:23.392Z,1176.00
2022-08-12T07:56:23.392Z,1232.00
2022-08-12T07:57:23.378Z,1240.00
2022-08-12T07:58:23.360Z,1260.00
2022-08-12T07:59:23.357Z,1556.00
2022-08-12T08:00:23.346Z,1868.00
2022-08-12T08:01:23.384Z,1448.00
2022-08-12T08:02:28.341Z,1228.00
2022-08-12T08:03:23.302Z,1244.00
2022-08-12T08:04:23.295Z,1236.00
2022-08-12T08:05:23.279Z,1260.00
2022-08-12T08:06:23.283Z,1248.00
2022-08-12T08:07:23.263Z,1260.00
2022-08-12T08:08:23.261Z,1340.00
2022-08-12T08:09:23.267Z,1588.00
2022-08-12T08:10:23.225Z,1284.00
2022-08-12T08:11:23.224Z,1344.00
2022-08-12T08:12:23.204Z,1396.00
2022-08-12T08:13:28.218Z,1372.00
2022-08-12T08:14:23.183Z,1388.00
2022-08-12T08:15:38.473Z,1348.00
2022-08-12T08:16:24.172Z,1464.00
2022-08-12T08:17:23.147Z,1312.00
2022-08-12T08:18:26.826Z,1332.00
2022-08-12T08:19:23.127Z,1320.00
2022-08-12T08:20:23.114Z,1320.00
2022-08-12T08:21:23.111Z,1324.00
2022-08-12T08:22:24.989Z,1336.00
2022-08-12T08:23:29.454Z,1364.00
2022-08-12T08:24:29.092Z,1340.00
2022-08-12T08:25:36.418Z,1576.00
2022-08-12T08:26:24.059Z,1396.00
2022-08-12T08:27:23.047Z,1436.00
2022-08-12T08:28:23.033Z,1432.00
2022-08-12T08:29:23.013Z,1444.00
2022-08-12T08:30:23.004Z,1404.00
2022-08-12T08:31:23.014Z,1452.00
2022-08-12T08:32:22.983Z,1500.00
2022-08-12T08:34:09.761Z,1528.00
2022-08-12T08:34:33.884Z,1916.00
2022-08-12T08:35:46.364Z,1592.00
2022-08-12T08:36:24.421Z,1600.00
2022-08-12T08:37:22.927Z,1584.00
2022-08-12T08:38:32.087Z,1612.00
2022-08-12T08:39:23.954Z,1788.00
2022-08-12T08:40:22.899Z,1892.00
2022-08-12T08:42:15.369Z,1680.00
2022-08-12T08:42:23.880Z,1684.00
2022-08-12T08:43:22.858Z,1572.00
2022-08-12T08:44:22.851Z,1512.00
2022-08-12T08:45:22.842Z,1480.00
2022-08-12T08:46:27.852Z,1556.00
2022-08-12T08:47:22.822Z,1592.00
2022-08-12T08:48:22.802Z,1516.00
2022-08-12T08:49:22.790Z,1656.00
2022-08-12T08:50:22.782Z,1584.00
2022-08-12T08:51:22.769Z,1648.00
2022-08-12T08:52:35.338Z,1612.00
2022-08-12T08:53:23.747Z,1704.00
2022-08-12T08:54:22.740Z,1820.00
2022-08-12T08:55:33.363Z,1964.00
2022-08-12T08:56:23.714Z,2008.00
2022-08-12T08:57:43.851Z,1936.00
2022-08-12T08:58:23.693Z,3092.00
2022-08-12T08:59:22.683Z,11116.00
2022-08-12T09:00:22.686Z,13596.00
2022-08-12T09:01:22.766Z,2876.00
2022-08-12T09:02:22.786Z,1644.00
2022-08-12T09:05:09.713Z,1668.00
2022-08-12T09:05:12.892Z,1688.00
2022-08-12T09:05:25.811Z,1672.00
2022-08-12T09:06:37.197Z,1652.00
2022-08-12T09:07:51.365Z,1696.00
2022-08-12T09:08:28.822Z,1672.00
2022-08-12T09:09:22.576Z,1632.00
2022-08-12T09:12:07.259Z,7296.00
2022-08-12T09:13:29.090Z,13388.00
2022-08-12T09:15:23.502Z,11196.00
2022-08-12T09:16:23.492Z,1628.00
2022-08-12T09:17:22.554Z,1620.00
2022-08-12T09:18:30.763Z,1648.00
2022-08-12T09:19:28.493Z,1656.00
2022-08-12T09:20:27.476Z,1720.00
2022-08-12T09:21:23.454Z,1964.00
2022-08-12T09:22:22.447Z,1760.00
2022-08-12T09:23:59.455Z,1832.00
2022-08-12T09:24:23.408Z,1880.00
2022-08-12T09:26:28.410Z,2080.00
2022-08-12T09:27:28.764Z,2760.00
2022-08-12T09:28:23.367Z,2752.00
2022-08-12T09:30:10.346Z,8040.00
2022-08-12T09:30:41.819Z,8768.00
2022-08-12T09:32:03.192Z,8952.00
2022-08-12T09:32:56.736Z,6904.00
2022-08-12T09:34:28.216Z,4140.00
2022-08-12T09:34:29.010Z,7064.00
2022-08-12T09:35:28.177Z,4492.00
2022-08-12T09:36:31.210Z,7224.00
2022-08-12T09:37:23.280Z,3836.00
2022-08-12T09:38:27.701Z,2508.00
2022-08-12T09:40:03.303Z,4744.00
2022-08-12T09:40:57.562Z,15392.00
2022-08-12T09:42:33.380Z,44384.00
2022-08-12T09:42:46.029Z,46112.00
2022-08-12T09:43:25.067Z,404.00
2022-08-12T09:44:39.043Z,11648.00
2022-08-12T09:46:05.292Z,2940.00
2022-08-12T09:46:23.164Z,2804.00
2022-08-12T09:47:28.875Z,2564.00
2022-08-12T09:48:23.139Z,5988.00
2022-08-12T09:49:23.983Z,2960.00
2022-08-12T09:50:22.117Z,5748.00
2022-08-12T09:51:22.881Z,28288.00
2022-08-12T09:53:36.098Z,4460.00
2022-08-12T09:54:10.625Z,5652.00
2022-08-12T09:54:34.086Z,2824.00
2022-08-12T09:56:05.433Z,4444.00
2022-08-12T09:57:00.230Z,3816.00
2022-08-12T09:58:44.465Z,7292.00
2022-08-12T09:58:58.848Z,3736.00
2022-08-12T10:00:15.435Z,2052.00
2022-08-12T10:00:28.257Z,2072.00
2022-08-12T10:01:24.060Z,2120.00
2022-08-12T10:02:45.003Z,2184.00
2022-08-12T10:03:32.421Z,2184.00
2022-08-12T10:04:22.998Z,3072.00
2022-08-12T10:05:21.956Z,3164.00
2022-08-12T10:06:31.466Z,8816.00
2022-08-12T10:07:24.965Z,21712.00
2022-08-12T10:08:21.928Z,4716.00
2022-08-12T10:09:23.100Z,2264.00
2022-08-12T10:10:24.836Z,2100.00
2022-08-12T10:11:21.889Z,2048.00
2022-08-12T10:12:31.172Z,3392.00
2022-08-12T10:13:38.160Z,3080.00
2022-08-12T10:14:34.568Z,2108.00
2022-08-12T10:16:00.569Z,2332.00
2022-08-12T10:16:23.223Z,4204.00
2022-08-12T10:17:21.829Z,2568.00
2022-08-12T10:18:21.820Z,2204.00
2022-08-12T10:19:21.794Z,2780.00
2022-08-12T10:20:22.836Z,2048.00
2022-08-12T10:21:21.774Z,2704.00
2022-08-12T10:22:36.597Z,2244.00
2022-08-12T10:23:40.504Z,2600.00
2022-08-12T10:24:22.771Z,2960.00
2022-08-12T10:25:21.730Z,21248.00
2022-08-12T10:26:37.153Z,20704.00
2022-08-12T10:27:38.941Z,45376.00
2022-08-12T10:28:25.343Z,56608.00
2022-08-12T10:30:03.195Z,3724.00
2022-08-12T10:30:43.872Z,3196.00
2022-08-12T10:31:22.662Z,4768.00
2022-08-12T10:32:44.605Z,15408.00
2022-08-12T10:33:31.086Z,5376.00
2022-08-12T10:34:23.821Z,5720.00
2022-08-12T10:35:21.619Z,9508.00
2022-08-12T10:36:21.628Z,3244.00
2022-08-12T10:38:36.188Z,2364.00
2022-08-12T10:38:38.529Z,2284.00
2022-08-12T10:40:08.218Z,2488.00
2022-08-12T10:40:32.210Z,2532.00
2022-08-12T10:41:22.642Z,9932.00
2022-08-12T10:42:29.273Z,5344.00
2022-08-12T10:43:22.576Z,7320.00
2022-08-12T10:44:21.528Z,8100.00
2022-08-12T10:45:21.510Z,7876.00
2022-08-12T10:46:21.500Z,17952.00
2022-08-12T10:47:26.296Z,4416.00
2022-08-12T10:48:33.678Z,18048.00
2022-08-12T10:50:02.485Z,14348.00
2022-08-12T10:50:35.770Z,6964.00
2022-08-12T10:52:04.230Z,13632.00
2022-08-12T10:52:34.836Z,19200.00
2022-08-12T10:53:44.482Z,34944.00
2022-08-12T10:54:22.418Z,10544.00
2022-08-12T10:55:21.398Z,6884.00
2022-08-12T10:56:21.447Z,11092.00
2022-08-12T10:58:27.882Z,9808.00
2022-08-12T10:58:30.944Z,2360.00
2022-08-12T11:00:31.587Z,10136.00
2022-08-12T11:00:33.973Z,14544.00
2022-08-12T11:04:14.320Z,2520.00
2022-08-12T11:04:24.251Z,2188.00
2022-08-12T11:04:25.806Z,2216.00
2022-08-12T11:07:08.742Z,2320.00
2022-08-12T11:07:08.743Z,2912.00
2022-08-12T11:08:38.558Z,69632.00
2022-08-12T11:08:38.602Z,14272.00
2022-08-12T11:09:55.786Z,10016.00
2022-08-12T11:10:26.572Z,17440.00
2022-08-12T11:12:37.053Z,5108.00
2022-08-12T11:12:54.808Z,4432.00
2022-08-12T11:13:22.199Z,14276.00
2022-08-12T11:14:49.617Z,18912.00
2022-08-12T11:16:02.485Z,10132.00
2022-08-12T11:16:23.331Z,4868.00
2022-08-12T11:17:34.127Z,6980.00
2022-08-12T11:18:22.145Z,26048.00
2022-08-12T11:19:22.476Z,4220.00
2022-08-12T11:20:21.123Z,2580.00
2022-08-12T11:21:21.113Z,3016.00
2022-08-12T11:22:24.193Z,4228.00
2022-08-12T11:23:25.264Z,9660.00
2022-08-12T11:24:30.729Z,2316.00
2022-08-12T11:25:22.074Z,3184.00
2022-08-12T11:26:21.567Z,39360.00
2022-08-12T11:27:21.373Z,19520.00
2022-08-12T11:28:34.036Z,16192.00
2022-08-12T11:29:23.042Z,31296.00
2022-08-12T11:30:31.321Z,6228.00
2022-08-12T11:31:22.004Z,10044.00
2022-08-12T11:32:21.009Z,7832.00
2022-08-12T11:33:52.626Z,11764.00
2022-08-12T11:34:52.685Z,6732.00
2022-08-12T11:35:21.963Z,2984.00
2022-08-12T11:36:22.184Z,6088.00
2022-08-12T11:37:24.783Z,3532.00
2022-08-12T11:38:21.898Z,2908.00
2022-08-12T11:39:28.418Z,3528.00
2022-08-12T11:40:21.887Z,6056.00
2022-08-12T11:41:31.216Z,2456.00
2022-08-12T11:42:25.848Z,2656.00
2022-08-12T11:43:21.869Z,2548.00
2022-08-12T11:44:36.644Z,4032.00
2022-08-12T11:45:21.832Z,4168.00
2022-08-12T11:46:20.810Z,3472.00
2022-08-12T11:47:20.802Z,3460.00
2022-08-12T11:48:27.194Z,12268.00
2022-08-12T11:49:31.693Z,15712.00
2022-08-12T11:50:23.846Z,6900.00
2022-08-12T11:51:21.759Z,13384.00
2022-08-12T11:52:54.835Z,12880.00
2022-08-12T11:53:59.387Z,83424.00
2022-08-12T11:54:29.593Z,15676.00
2022-08-12T11:55:23.314Z,25536.00
2022-08-12T11:56:20.733Z,4304.00
2022-08-12T11:58:44.108Z,85536.00
2022-08-12T11:59:31.363Z,98272.00
2022-08-12T12:02:00.914Z,106688.00
2022-08-12T12:02:03.198Z,104672.00
2022-08-12T12:02:21.818Z,100096.00
2022-08-12T12:03:22.993Z,99456.00
2022-08-12T12:04:25.899Z,101536.00
2022-08-12T12:05:21.624Z,103008.00
2022-08-12T12:06:21.600Z,99904.00
2022-08-12T12:08:36.345Z,96832.00
2022-08-12T12:08:39.054Z,92384.00
2022-08-12T12:09:21.596Z,90080.00
2022-08-12T12:10:20.576Z,93696.00
2022-08-12T12:11:20.552Z,90848.00
2022-08-12T12:12:21.373Z,85696.00
2022-08-12T12:13:22.875Z,86208.00
2022-08-12T12:14:38.081Z,88032.00
2022-08-12T12:15:24.951Z,93216.00
2022-08-12T12:16:20.503Z,97888.00
2022-08-12T12:17:20.507Z,96544.00
2022-08-12T12:18:22.354Z,93664.00
2022-08-12T12:19:21.472Z,95392.00
2022-08-12T12:20:26.020Z,97056.00
2022-08-12T12:21:47.071Z,96032.00
2022-08-12T12:22:23.565Z,96032.00
2022-08-12T12:23:29.275Z,96032.00
2022-08-12T12:24:22.444Z,96640.00
2022-08-12T12:25:20.422Z,96640.00
2022-08-12T12:26:35.607Z,92288.00
2022-08-12T12:27:42.265Z,82368.00
2022-08-12T12:28:38.005Z,78400.00
2022-08-12T12:30:19.314Z,84192.00
2022-08-12T12:30:29.660Z,90272.00
2022-08-12T12:32:10.796Z,89152.00
2022-08-12T12:32:29.039Z,78944.00
2022-08-12T12:33:21.334Z,72672.00
2022-08-12T12:34:30.528Z,73312.00
2022-08-12T12:36:17.019Z,73376.00
2022-08-12T12:36:29.604Z,77440.00
2022-08-12T12:37:27.127Z,80064.00
2022-08-12T12:38:25.006Z,87584.00
2022-08-12T12:39:20.320Z,75648.00
2022-08-12T12:40:20.289Z,26496.00
2022-08-12T12:41:20.256Z,2868.00
2022-08-12T12:42:44.037Z,2512.00
2022-08-12T12:43:28.853Z,2408.00
2022-08-12T12:44:25.928Z,2368.00
2022-08-12T12:45:26.241Z,2292.00
2022-08-12T12:46:21.205Z,2260.00
2022-08-12T12:47:30.206Z,2196.00
2022-08-12T12:48:21.185Z,2216.00
2022-08-12T12:49:20.178Z,2176.00
2022-08-12T12:50:35.965Z,2168.00
2022-08-12T12:51:48.384Z,2144.00
2022-08-12T12:52:21.422Z,2140.00
2022-08-12T12:54:05.170Z,2096.00
2022-08-12T12:54:24.470Z,2116.00
2022-08-12T12:55:21.126Z,2072.00
2022-08-12T12:56:20.115Z,2092.00
2022-08-12T12:57:21.582Z,2108.00
2022-08-12T12:58:21.085Z,2152.00
2022-08-12T12:59:35.010Z,2248.00
2022-08-12T13:00:21.079Z,2752.00
2022-08-12T13:01:26.802Z,3448.00
2022-08-12T13:02:31.755Z,4300.00
2022-08-12T13:03:21.033Z,4792.00
2022-08-12T13:04:25.043Z,3984.00
2022-08-12T13:05:20.021Z,3556.00
2022-08-12T13:06:21.205Z,3880.00
2022-08-12T13:07:19.992Z,2548.00
2022-08-12T13:08:20.978Z,2400.00
2022-08-12T13:09:22.817Z,2944.00
2022-08-12T13:10:23.892Z,2772.00
2022-08-12T13:11:19.950Z,2592.00
2022-08-12T13:12:20.505Z,2372.00
2022-08-12T13:14:06.760Z,2224.00
2022-08-12T13:14:29.267Z,2192.00
2022-08-12T13:15:43.451Z,2072.00
2022-08-12T13:16:20.926Z,2056.00
2022-08-12T13:17:19.945Z,2264.00
2022-08-12T13:18:19.881Z,2284.00
2022-08-12T13:19:25.455Z,2264.00
2022-08-12T13:20:33.637Z,2376.00
2022-08-12T13:21:32.663Z,2672.00
2022-08-12T13:22:23.639Z,3416.00
2022-08-12T13:23:37.164Z,3624.00
2022-08-12T13:24:20.812Z,3152.00
2022-08-12T13:25:19.801Z,3060.00
2022-08-12T13:26:19.800Z,2852.00
2022-08-12T13:27:19.776Z,2800.00
2022-08-12T13:28:28.578Z,3148.00
2022-08-12T13:29:19.779Z,3240.00
2022-08-12T13:30:19.770Z,3440.00
2022-08-12T13:31:19.744Z,3308.00
2022-08-12T13:32:30.900Z,3088.00
2022-08-12T13:33:20.710Z,2372.00
2022-08-12T13:34:32.087Z,1896.00
2022-08-12T13:36:02.904Z,1844.00
2022-08-12T13:36:20.690Z,1856.00
2022-08-12T13:37:19.675Z,1868.00
2022-08-12T13:38:26.581Z,1900.00
2022-08-12T13:39:20.675Z,1912.00
2022-08-12T13:40:19.638Z,1968.00
2022-08-12T13:41:24.658Z,2172.00
2022-08-12T13:42:19.642Z,2236.00
2022-08-12T13:43:41.005Z,2020.00
2022-08-12T13:44:20.601Z,1992.00
2022-08-12T13:45:19.589Z,2056.00
2022-08-12T13:46:19.583Z,2328.00
2022-08-12T13:47:21.057Z,2392.00
2022-08-12T13:48:19.728Z,2288.00
2022-08-12T13:49:53.881Z,2116.00
2022-08-12T13:50:20.529Z,1680.00
2022-08-12T13:51:24.120Z,2408.00
2022-08-12T13:52:19.533Z,2240.00
2022-08-12T13:53:24.265Z,2156.00
2022-08-12T13:54:25.601Z,1712.00
2022-08-12T13:55:19.519Z,1732.00
2022-08-12T13:56:19.502Z,1876.00
2022-08-12T13:57:19.453Z,1956.00
2022-08-12T13:58:19.444Z,2020.00
2022-08-12T13:59:19.434Z,2232.00
2022-08-12T14:00:20.420Z,2460.00
2022-08-12T14:01:20.421Z,2936.00
2022-08-12T14:02:19.443Z,3008.00
2022-08-12T14:03:19.456Z,2932.00
2022-08-12T14:04:19.379Z,3160.00
2022-08-12T14:05:37.924Z,3812.00
2022-08-12T14:06:20.367Z,4272.00
2022-08-12T14:07:26.168Z,3800.00
2022-08-12T14:08:21.315Z,2820.00
2022-08-12T14:09:19.930Z,2612.00
2022-08-12T14:10:19.316Z,2360.00
2022-08-12T14:11:19.351Z,1732.00
2022-08-12T14:12:20.291Z,1432.00
2022-08-12T14:14:04.888Z,1144.00
2022-08-12T14:14:20.316Z,972.00
2022-08-12T14:15:19.258Z,980.00
2022-08-12T14:16:47.177Z,1008.00
2022-08-12T14:17:20.235Z,1180.00
2022-08-12T14:18:19.228Z,1260.00
2022-08-12T14:19:24.351Z,1296.00
2022-08-12T14:20:26.543Z,1804.00
2022-08-12T14:21:22.444Z,1504.00
2022-08-12T14:22:19.217Z,1804.00
2022-08-12T14:24:05.415Z,1824.00
2022-08-12T14:24:20.172Z,1812.00
2022-08-12T14:25:20.150Z,1872.00
2022-08-12T14:26:20.019Z,1944.00
2022-08-12T14:28:04.804Z,1844.00
2022-08-12T14:28:20.117Z,1772.00
2022-08-12T14:29:37.742Z,1848.00
2022-08-12T14:30:24.060Z,1932.00
2022-08-12T14:31:20.093Z,1956.00
2022-08-12T14:32:19.075Z,2064.00
2022-08-12T14:33:24.089Z,2204.00
2022-08-12T14:34:19.135Z,2308.00
2022-08-12T14:35:20.043Z,2660.00
2022-08-12T14:36:19.045Z,2840.00
2022-08-12T14:37:55.420Z,2836.00
2022-08-12T14:38:25.799Z,2652.00
2022-08-12T14:39:20.046Z,2388.00
2022-08-12T14:40:27.449Z,2168.00
2022-08-12T14:41:20.025Z,2160.00
2022-08-12T14:42:18.965Z,2160.00
2022-08-12T14:43:18.954Z,2376.00
2022-08-12T14:44:58.923Z,2612.00
2022-08-12T14:45:22.996Z,2972.00
2022-08-12T14:46:18.960Z,2440.00
2022-08-12T14:47:18.909Z,2860.00
2022-08-12T14:48:18.908Z,2736.00
2022-08-12T14:49:27.540Z,2388.00
2022-08-12T14:50:40.926Z,1996.00
2022-08-12T14:52:55.915Z,2100.00
2022-08-12T14:53:45.856Z,1432.00
2022-08-12T14:56:59.431Z,1600.00
2022-08-12T14:57:33.664Z,1600.00
2022-08-12T14:58:19.790Z,1708.00
2022-08-12T14:59:23.585Z,1676.00
2022-08-12T15:00:19.768Z,1612.00
2022-08-12T15:01:21.363Z,1616.00
2022-08-12T15:02:18.747Z,1664.00
2022-08-12T15:03:18.736Z,1704.00
2022-08-12T15:04:18.730Z,1808.00
2022-08-12T15:06:05.085Z,1968.00
2022-08-12T15:06:44.489Z,2128.00
2022-08-12T15:07:33.338Z,2276.00
2022-08-12T15:08:24.704Z,2284.00
2022-08-12T15:09:18.669Z,2328.00
2022-08-12T15:10:25.413Z,2356.00
2022-08-12T15:11:21.687Z,2360.00
2022-08-12T15:12:18.650Z,2420.00
2022-08-12T15:13:19.626Z,2408.00
2022-08-12T15:14:18.957Z,2376.00
2022-08-12T15:15:18.604Z,2424.00
2022-08-12T15:16:18.851Z,2596.00
2022-08-12T15:17:37.463Z,2652.00
2022-08-12T15:18:21.637Z,2640.00
2022-08-12T15:20:12.009Z,2396.00
2022-08-12T15:20:33.455Z,2276.00
2022-08-12T15:21:19.539Z,2132.00
2022-08-12T15:22:37.595Z,1556.00
2022-08-12T15:23:21.457Z,1432.00
2022-08-12T15:24:18.505Z,1384.00
2022-08-12T15:25:18.493Z,1616.00
2022-08-12T15:26:20.640Z,1360.00
2022-08-12T15:27:22.468Z,1760.00
2022-08-12T15:28:21.579Z,2040.00
2022-08-12T15:29:18.451Z,2284.00
2022-08-12T15:30:23.474Z,2424.00
2022-08-12T15:31:27.941Z,2580.00
2022-08-12T15:32:31.789Z,2868.00
2022-08-12T15:33:21.085Z,2840.00
2022-08-12T15:34:18.396Z,2820.00
2022-08-12T15:35:18.389Z,2748.00
2022-08-12T15:36:19.375Z,2724.00
2022-08-12T15:37:19.371Z,2872.00
2022-08-12T15:38:19.790Z,2872.00
2022-08-12T15:39:18.449Z,2560.00
2022-08-12T15:40:30.072Z,2124.00
2022-08-12T15:41:24.340Z,1976.00
2022-08-12T15:42:18.322Z,2064.00
2022-08-12T15:43:51.199Z,2216.00
2022-08-12T15:44:37.965Z,2420.00
2022-08-12T15:45:23.544Z,2448.00
2022-08-12T15:46:18.266Z,2284.00
2022-08-12T15:47:18.262Z,2216.00
2022-08-12T15:48:20.308Z,2160.00
2022-08-12T15:49:18.230Z,2052.00
2022-08-12T15:50:23.394Z,1852.00
2022-08-12T15:51:19.206Z,1632.00
2022-08-12T15:52:27.317Z,1444.00
2022-08-12T15:53:18.208Z,1308.00
2022-08-12T15:54:30.729Z,980.00
2022-08-12T15:55:20.274Z,1304.00
2022-08-12T15:56:18.320Z,856.00
2022-08-12T15:57:18.152Z,968.00
2022-08-12T15:58:18.134Z,1056.00
2022-08-12T15:59:18.146Z,1096.00
2022-08-12T16:00:32.345Z,1176.00
2022-08-12T16:01:19.138Z,1256.00
2022-08-12T16:02:18.107Z,1444.00
2022-08-12T16:03:25.436Z,1416.00
2022-08-12T16:04:19.068Z,1412.00
2022-08-12T16:06:12.623Z,1480.00
2022-08-12T16:06:36.330Z,1712.00
2022-08-12T16:07:19.042Z,1776.00
2022-08-12T16:08:27.201Z,1832.00
2022-08-12T16:09:21.518Z,1836.00
2022-08-12T16:10:18.003Z,1792.00
2022-08-12T16:11:19.053Z,1860.00
2022-08-12T16:12:22.171Z,2228.00
2022-08-12T16:13:17.967Z,2512.00
2022-08-12T16:14:18.957Z,2508.00
2022-08-12T16:15:17.953Z,2440.00
2022-08-12T16:16:24.821Z,2372.00